Airfield :
LOGIN :

Register | Disclaimer

   EN    FR    IT 

 










Legend :    VFR   Marginal VFR   IFR   Intensive IFR   Very Intensive IFR
Visi :
Ceiling :
>= 8 km
>= 3000ft
5 to 8 km
1000 to 3000 ft
1500m to 5 km
500 to 1000 ft
800 to 1500m
200 to 500 ft
< 800m
< 200 ft
Symbols :   Thunderstorms  Fog  Heavy snow  Heavy precipitations  Wind > 20 kt
SIGMETs :     Misc.  Thunderstorms  Icing  Turbulence  Mountain Waves  Volcanic Ashes







- Airport Elevation : 348 ft
- IATA code : STN
- Download approach charts


EGSS - London Stansted

CURRENT METAR :
  • 250120Z AUTO 33004KT 9999 -RA NCD 18/17 Q1017

EXPIRED METARs :
  • 250050Z AUTO 33005KT 9999 -RA NCD 18/17 Q1018
  • 250020Z AUTO 31004KT 9999 -RA NCD 18/16 Q1018
  • 242350Z AUTO 25003KT 9999 -RA NCD 19/16 Q1018
  • 242320Z AUTO 30003KT 9999 -RA NCD 18/16 Q1018
  • 242250Z AUTO 26001KT 9999 NCD 19/16 Q1018
  • 242220Z 18003KT CAVOK 20/16 Q1019

TAF TAF EGSS
Valid from the 25 at 00:00 until the 26 at 06:00 UTC


242303Z 2500/2606 01006KT 9999 SCT045
TEMPO 2500/2506 3000 +RA TSRA
PROB30
TEMPO 2500/2506 VRB15G25KT 1200 +TSRA BKN003 BKN045CB
TEMPO 2506/2512 8000 BKN007
PROB30
TEMPO 2506/2509 2000 BR BKN003
BECMG 2518/2521 6000 BKN007
TEMPO 2521/2606 3000 BR BKN003
ATIS : +44 1279 669 325
No reported NOTAMs for that airfield.
2 SIGMETs reported for the London FIR (EGTT) :
 
Embedded thunderstorms
EGTT SIGMET 07 VALID 242100/250100 EGRR
EGTT LONDON FIR EMBD TS FCST WI N5000 W00200 - N5040 W00130 - N5040 E00030 - N5016 E00027 - N5000 W00015 - N5000 W00200 TOP FL360 MOV NNE 20KT NC=
Embedded thunderstorms
EGTT SIGMET 01 VALID 250100/250500 EGRR
EGTT LONDON FIR EMBD TS FCST WI N5130 W00100 - N5135 E00100 - N5030 E00101 - N5000 W00015 - N5000 W00200 - N5130 W00100 TOP FL360 MOV NNE 20KT NC=



MET'MAP, your aeronautical weather chart ! - Copyright ORBIFLY December 2007 - Disclaimer

ORBIFLY MET'MAP TEAM :

Programming & Development : Alexandra Zaïnal
Concept & Development : Baudouin d'Aumeries
Co-Development & Prog : Marc-Olivier Méhu
Technical & hardware support : Manuel Goepfert

Contact : metmap@orbifly.com




SOURCES & CREDITS :

   NOAA